Time;durP1;ratioP1;P1;durP2;ratioP2;P2;SDS_P1;SDS_P2;PMS_P1;PMS_P2;Temp;Humidity;BMP_temperature;BMP_pressure;BME280_temperature;BME280_humidity;BME280_pressure;Samples;Min_cycle;Max_cycle;Signal;HPM_P1;HPM_P2
2022/12/19 00:02:23;;;;;;;50.70;25.35;;;;;;;-0.46;100.00;97426.22;4962887;28;20074;-45
2022/12/19 00:04:52;;;;;;;48.22;23.30;;;;;;;-0.44;100.00;97421.00;4959359;28;21162;-46
2022/12/19 00:07:20;;;;;;;49.78;23.30;;;;;;;-0.81;100.00;97419.66;4962959;28;20487;-42
2022/12/19 00:09:49;;;;;;;50.33;24.20;;;;;;;-0.14;100.00;97419.06;4960712;28;20090;-50
2022/12/19 00:12:17;;;;;;;45.00;22.35;;;;;;;-0.26;100.00;97417.75;4962573;28;20086;-48
2022/12/19 00:14:47;;;;;;;48.65;25.40;;;;;;;0.02;100.00;97422.78;4959601;28;20090;-43
2022/12/19 00:17:15;;;;;;;38.60;19.90;;;;;;;-0.42;100.00;97429.56;4962070;28;20089;-47
2022/12/19 00:19:45;;;;;;;51.38;25.55;;;;;;;-0.07;100.00;97426.56;4961348;28;20075;-48
2022/12/19 00:22:13;;;;;;;47.38;23.88;;;;;;;-0.51;100.00;97423.81;4963507;28;20071;-50
2022/12/19 00:24:42;;;;;;;50.50;23.60;;;;;;;-0.13;100.00;97415.59;4975076;28;20071;-46
2022/12/19 00:27:10;;;;;;;50.03;23.42;;;;;;;-0.39;100.00;97398.34;4963733;28;20085;-43
2022/12/19 00:29:38;;;;;;;48.40;23.70;;;;;;;-0.37;100.00;97396.56;4966460;28;20591;-46
2022/12/19 00:32:07;;;;;;;49.75;23.40;;;;;;;-0.34;100.00;97399.91;4960803;28;20519;-46
2022/12/19 00:34:35;;;;;;;47.42;24.15;;;;;;;-0.56;100.00;97394.59;4964588;28;20543;-52
2022/12/19 00:37:05;;;;;;;41.28;21.10;;;;;;;-0.39;100.00;97375.03;4964347;28;20078;-43
2022/12/19 00:39:33;;;;;;;46.43;22.70;;;;;;;-0.66;100.00;97377.69;4965880;28;20547;-49
2022/12/19 00:42:01;;;;;;;31.77;16.92;;;;;;;-0.79;100.00;97374.69;4965272;28;20520;-46
2022/12/19 00:44:29;;;;;;;50.35;24.98;;;;;;;-0.38;100.00;97374.13;4966519;28;20085;-50
2022/12/19 00:46:58;;;;;;;47.75;23.85;;;;;;;-0.42;100.00;97369.97;4966244;28;20105;-48
2022/12/19 00:49:26;;;;;;;53.85;26.35;;;;;;;-0.09;100.00;97360.13;4968094;28;20482;-48
2022/12/19 00:51:56;;;;;;;40.08;20.90;;;;;;;0.17;100.00;97372.09;4967251;28;20093;-47
2022/12/19 00:54:25;;;;;;;43.03;22.75;;;;;;;0.47;100.00;97386.47;4966447;28;20097;-49
2022/12/19 00:56:54;;;;;;;47.60;23.40;;;;;;;0.55;100.00;97386.19;4965403;28;20089;-52
2022/12/19 00:59:22;;;;;;;47.38;23.40;;;;;;;0.72;100.00;97408.88;4965181;28;20090;-47
2022/12/19 01:01:54;;;;;;;50.17;23.90;;;;;;;0.94;100.00;97422.69;4966340;28;20605;-49
2022/12/19 01:04:22;;;;;;;46.42;24.33;;;;;;;1.09;100.00;97416.03;4963050;28;20105;-51
2022/12/19 01:06:56;;;;;;;50.90;24.13;;;;;;;1.22;100.00;97400.78;4961324;28;20098;-46
2022/12/19 01:09:32;;;;;;;49.13;24.08;;;;;;;1.05;100.00;97401.47;4966536;28;20070;-51
2022/12/19 01:14:47;;;;;;;49.58;23.85;;;;;;;0.50;100.00;97371.69;4965352;28;20097;-44
2022/12/19 01:17:16;;;;;;;47.28;22.40;;;;;;;0.46;100.00;97382.19;4961995;28;20555;-46
2022/12/19 01:19:44;;;;;;;50.38;23.58;;;;;;;0.35;100.00;97394.75;4966972;28;20551;-54
2022/12/19 01:22:13;;;;;;;50.83;24.83;;;;;;;-0.23;100.00;97364.97;4964984;28;20074;-51
2022/12/19 01:24:43;;;;;;;50.97;26.60;;;;;;;-0.75;100.00;97352.97;4961858;28;20083;-48
2022/12/19 01:27:11;;;;;;;43.38;21.65;;;;;;;-1.02;100.00;97356.50;4960897;28;20078;-45
2022/12/19 01:29:39;;;;;;;52.65;24.95;;;;;;;-0.45;100.00;97370.06;4964045;28;20090;-47
2022/12/19 01:32:20;;;;;;;40.22;20.08;;;;;;;-0.14;100.00;97359.44;4964627;28;20123;-44
2022/12/19 01:34:48;;;;;;;47.25;21.70;;;;;;;-0.63;100.00;97350.84;4963930;28;20093;-46
2022/12/19 01:37:17;;;;;;;51.55;22.13;;;;;;;0.10;100.00;97357.66;4963147;28;20086;-47
2022/12/19 01:39:47;;;;;;;48.90;23.13;;;;;;;0.03;100.00;97346.69;4964609;28;20471;-50
2022/12/19 01:42:16;;;;;;;43.65;21.70;;;;;;;0.09;100.00;97364.59;4964136;28;20081;-47
2022/12/19 01:45:33;;;;;;;44.40;21.48;;;;;;;0.36;100.00;97374.84;4963374;28;20083;-47
2022/12/19 01:48:11;;;;;;;32.42;16.60;;;;;;;0.12;100.00;97374.88;4965822;28;20553;-48
2022/12/19 01:50:52;;;;;;;41.35;20.73;;;;;;;0.42;100.00;97377.19;4965613;28;20101;-47
2022/12/19 01:53:33;;;;;;;45.78;23.38;;;;;;;0.26;100.00;97373.50;4968063;28;20075;-47
2022/12/19 01:56:07;;;;;;;48.42;22.77;;;;;;;0.24;100.00;97378.72;4964133;28;20487;-43
2022/12/19 01:58:36;;;;;;;41.53;21.10;;;;;;;0.87;100.00;97384.06;4962788;28;20093;-46
2022/12/19 02:01:05;;;;;;;45.13;22.37;;;;;;;1.04;100.00;97388.56;4963470;28;20086;-55
2022/12/19 02:03:37;;;;;;;46.85;22.33;;;;;;;1.16;100.00;97388.88;4963755;28;21144;-53
2022/12/19 02:06:06;;;;;;;50.83;24.17;;;;;;;0.88;100.00;97391.78;4962717;28;20082;-47
2022/12/19 02:08:35;;;;;;;47.23;22.60;;;;;;;0.98;100.00;97389.66;4962053;28;20549;-47
2022/12/19 02:11:05;;;;;;;49.58;23.20;;;;;;;1.16;100.00;97382.84;4965330;28;20509;-48
2022/12/19 02:13:34;;;;;;;47.72;23.92;;;;;;;0.69;100.00;97383.06;4961100;28;20295;-48
2022/12/19 02:16:09;;;;;;;47.65;23.00;;;;;;;0.82;100.00;97373.00;4963578;28;20582;-44
2022/12/19 02:18:41;;;;;;;43.03;22.33;;;;;;;0.77;100.00;97380.16;4964047;28;20074;-44
2022/12/19 02:21:18;;;;;;;52.83;24.45;;;;;;;1.00;100.00;97382.66;4962406;28;20090;-49
2022/12/19 02:24:27;;;;;;;53.65;24.70;;;;;;;1.03;100.00;97394.66;4967347;28;20082;-43
2022/12/19 02:27:32;;;;;;;51.90;22.50;;;;;;;1.14;100.00;97393.31;4964055;28;20078;-45
2022/12/19 02:30:10;;;;;;;49.05;22.95;;;;;;;1.28;100.00;97402.28;4940733;28;20679;-44
2022/12/19 02:32:48;;;;;;;47.50;24.10;;;;;;;1.05;100.00;97401.47;4963296;28;20531;-43
2022/12/19 02:35:24;;;;;;;50.22;23.65;;;;;;;0.76;100.00;97400.06;4963189;28;20531;-49
2022/12/19 02:37:58;;;;;;;49.83;24.13;;;;;;;0.62;100.00;97402.34;4963773;28;20085;-47
2022/12/19 02:40:30;;;;;;;49.88;24.33;;;;;;;0.82;100.00;97402.41;4966116;28;20179;-43
2022/12/19 02:43:01;;;;;;;48.95;24.13;;;;;;;0.94;100.00;97404.53;4963704;28;20085;-44
2022/12/19 02:45:33;;;;;;;51.50;23.25;;;;;;;0.75;100.00;97402.72;4959777;28;21790;-44
2022/12/19 02:48:04;;;;;;;50.67;24.10;;;;;;;0.93;100.00;97400.25;4963187;28;20083;-43
2022/12/19 02:50:40;;;;;;;49.85;22.48;;;;;;;0.85;100.00;97396.25;4964303;28;20078;-50
2022/12/19 02:53:10;;;;;;;50.55;23.20;;;;;;;1.05;100.00;97387.66;4961421;28;20622;-47
2022/12/19 02:55:47;;;;;;;55.10;25.10;;;;;;;1.05;100.00;97391.09;4963780;28;20090;-45
2022/12/19 02:58:32;;;;;;;52.72;24.38;;;;;;;1.12;100.00;97399.47;4960677;28;20085;-47
2022/12/19 03:01:08;;;;;;;51.90;23.40;;;;;;;1.18;100.00;97413.06;4963931;28;20511;-48
2022/12/19 03:03:45;;;;;;;57.10;25.00;;;;;;;1.30;100.00;97414.28;4964887;28;20062;-46
2022/12/19 03:06:18;;;;;;;52.20;23.75;;;;;;;1.33;100.00;97406.38;4958219;28;20077;-50
2022/12/19 03:08:51;;;;;;;54.85;24.80;;;;;;;1.44;100.00;97400.72;4958874;28;20393;-48
2022/12/19 03:11:22;;;;;;;57.28;25.73;;;;;;;1.52;100.00;97406.44;4961710;28;20527;-49
2022/12/19 03:13:54;;;;;;;55.72;25.05;;;;;;;1.61;100.00;97407.78;4962901;28;20070;-45
2022/12/19 03:16:23;;;;;;;56.65;24.98;;;;;;;1.64;100.00;97411.09;4960697;28;20075;-46
2022/12/19 03:18:53;;;;;;;54.72;25.33;;;;;;;1.67;100.00;97416.16;4958617;28;20527;-43
2022/12/19 03:21:23;;;;;;;;;;;;;;;1.77;100.00;97416.63;4965205;28;20074;-50
2022/12/19 03:23:54;;;;;;;52.33;23.25;;;;;;;1.86;100.00;97431.84;4962522;28;20350;-46
2022/12/19 03:26:26;;;;;;;51.85;23.50;;;;;;;1.93;100.00;97431.53;4961606;28;20161;-47
2022/12/19 03:28:56;;;;;;;50.25;23.58;;;;;;;1.95;100.00;97425.38;4957470;28;20113;-51
2022/12/19 03:31:28;;;;;;;51.58;24.17;;;;;;;1.90;100.00;97422.13;4963682;28;20085;-44
2022/12/19 03:34:01;;;;;;;56.95;24.52;;;;;;;1.90;100.00;97416.94;4962715;28;20082;-46
2022/12/19 03:36:32;;;;;;;49.25;25.20;;;;;;;1.89;100.00;97426.50;4966016;28;20082;-47
2022/12/19 03:39:03;;;;;;;55.25;24.23;;;;;;;1.89;100.00;97431.69;4965345;28;20089;-47
2022/12/19 03:44:18;;;;;;;56.17;26.30;;;;;;;1.53;100.00;97435.88;4966089;28;20085;-48
2022/12/19 03:46:51;;;;;;;51.97;25.25;;;;;;;1.32;100.00;97438.47;4960265;28;20093;-44
2022/12/19 03:49:21;;;;;;;54.25;24.73;;;;;;;1.70;100.00;97451.59;4963342;28;20082;-43
2022/12/19 03:51:54;;;;;;;57.10;25.97;;;;;;;1.93;100.00;97449.75;4960722;28;20086;-46
2022/12/19 03:54:29;;;;;;;53.08;24.90;;;;;;;1.83;100.00;97439.75;4962635;28;20508;-52
2022/12/19 03:57:01;;;;;;;51.35;24.77;;;;;;;0.97;100.00;97452.06;4966676;28;20078;-43
2022/12/19 03:59:33;;;;;;;54.80;24.88;;;;;;;1.14;100.00;97449.63;4963946;28;20094;-43
2022/12/19 04:02:01;;;;;;;58.20;27.98;;;;;;;1.10;100.00;97433.31;4964865;28;20082;-43
2022/12/19 04:04:35;;;;;;;52.55;24.77;;;;;;;0.80;100.00;97437.16;4964988;28;20090;-46
2022/12/19 04:07:04;;;;;;;58.30;26.38;;;;;;;1.05;100.00;97437.00;4968631;28;20086;-52
2022/12/19 04:09:33;;;;;;;54.90;26.27;;;;;;;0.91;100.00;97415.03;4967928;28;20086;-46
2022/12/19 04:12:04;;;;;;;52.88;23.80;;;;;;;0.67;100.00;97419.44;4967288;28;20093;-43
2022/12/19 04:14:34;;;;;;;45.22;20.38;;;;;;;0.29;100.00;97420.91;4967106;28;20082;-47
2022/12/19 04:17:10;;;;;;;56.30;27.15;;;;;;;0.60;100.00;97423.19;4967361;28;20473;-42
2022/12/19 04:19:43;;;;;;;54.10;26.70;;;;;;;0.33;100.00;97393.13;4970514;28;20630;-46
2022/12/19 04:22:15;;;;;;;48.08;24.02;;;;;;;-0.08;100.00;97367.00;4966411;28;20565;-46
2022/12/19 04:24:44;;;;;;;44.13;24.63;;;;;;;-0.64;100.00;97321.50;4965499;28;20093;-49
2022/12/19 04:27:13;;;;;;;58.80;27.10;;;;;;;0.12;100.00;97442.28;4965724;28;20074;-43
2022/12/19 04:29:42;;;;;;;57.50;25.17;;;;;;;0.96;100.00;97446.00;4972156;28;20074;-43
2022/12/19 04:32:11;;;;;;;56.80;26.02;;;;;;;0.62;100.00;97499.25;4965157;28;20077;-43
2022/12/19 04:34:41;;;;;;;55.38;26.23;;;;;;;0.94;100.00;97485.03;4963578;28;20078;-47
2022/12/19 04:37:10;;;;;;;;;;;;;;;0.97;100.00;97488.41;4967750;28;20077;-48
2022/12/19 04:39:38;;;;;;;56.08;24.38;;;;;;;1.14;100.00;97458.25;4960236;28;19961;-43
2022/12/19 04:42:07;;;;;;;57.85;25.42;;;;;;;1.02;100.00;97486.47;4963445;28;20085;-44
2022/12/19 04:44:35;;;;;;;57.88;24.85;;;;;;;1.23;100.00;97425.84;4962624;28;20103;-52
2022/12/19 04:47:03;;;;;;;51.28;23.23;;;;;;;0.77;100.00;97466.66;4961331;28;20098;-51
2022/12/19 04:49:32;;;;;;;53.17;25.23;;;;;;;0.92;100.00;97429.69;4963722;28;20085;-47
2022/12/19 04:52:01;;;;;;;54.63;25.02;;;;;;;0.92;100.00;97478.19;4963495;28;20071;-52
2022/12/19 04:54:30;;;;;;;53.80;23.92;;;;;;;0.63;100.00;97449.03;4960311;28;20468;-49
2022/12/19 04:56:58;;;;;;;49.30;24.20;;;;;;;1.09;100.00;97426.41;4965397;28;20069;-45
2022/12/19 04:59:26;;;;;;;57.15;26.85;;;;;;;0.91;100.00;97421.97;4959722;28;20075;-46
2022/12/19 05:01:55;;;;;;;52.92;24.55;;;;;;;0.96;100.00;97404.44;4961777;28;20086;-44
2022/12/19 05:04:24;;;;;;;52.20;23.67;;;;;;;0.81;100.00;97415.47;4961448;28;20468;-49
2022/12/19 05:06:52;;;;;;;55.33;24.23;;;;;;;1.38;100.00;97429.59;4972927;28;20105;-49
2022/12/19 05:09:22;;;;;;;52.17;24.58;;;;;;;1.63;100.00;97412.03;4971993;28;20085;-51
2022/12/19 05:11:51;;;;;;;55.30;28.00;;;;;;;0.44;100.00;97435.06;4959548;28;20539;-46
2022/12/19 05:14:19;;;;;;;55.47;26.50;;;;;;;1.36;100.00;97446.97;4966334;28;20082;-46
2022/12/19 05:16:48;;;;;;;56.08;24.92;;;;;;;1.36;100.00;97440.03;4966073;28;20086;-47
2022/12/19 05:19:16;;;;;;;52.50;24.33;;;;;;;1.48;100.00;97450.81;4966295;28;20078;-45
2022/12/19 05:21:44;;;;;;;51.83;25.05;;;;;;;1.55;100.00;97439.25;4962727;28;20490;-44
2022/12/19 05:24:13;;;;;;;53.70;25.08;;;;;;;1.41;100.00;97432.91;4964623;28;20090;-44
2022/12/19 05:26:42;;;;;;;55.70;23.95;;;;;;;1.17;100.00;97439.94;4968851;28;20082;-49
2022/12/19 05:29:11;;;;;;;50.03;23.80;;;;;;;1.12;100.00;97407.25;4965210;28;20117;-46
2022/12/19 05:31:39;;;;;;;53.58;23.95;;;;;;;1.12;100.00;97436.69;4964852;28;21249;-48
2022/12/19 05:34:07;;;;;;;52.83;23.70;;;;;;;1.65;100.00;97451.81;4964428;28;20090;-51
2022/12/19 05:36:36;;;;;;;50.95;24.67;;;;;;;1.45;100.00;97433.59;4966964;28;20526;-51
2022/12/19 05:39:04;;;;;;;49.50;24.10;;;;;;;1.46;100.00;97432.69;4971331;28;20473;-52
2022/12/19 05:41:32;;;;;;;52.67;26.05;;;;;;;1.29;100.00;97456.78;4966040;28;20090;-48
2022/12/19 05:44:02;;;;;;;59.15;24.98;;;;;;;1.64;100.00;97455.28;4962902;28;20090;-43
2022/12/19 05:46:30;;;;;;;51.80;25.85;;;;;;;1.49;100.00;97442.97;4965819;28;20105;-48
2022/12/19 05:48:59;;;;;;;49.92;24.67;;;;;;;1.27;100.00;97443.00;4956308;28;20093;-48
2022/12/19 05:51:27;;;;;;;46.33;22.38;;;;;;;0.82;100.00;97419.72;4967355;28;20447;-47
2022/12/19 05:53:56;;;;;;;50.55;24.77;;;;;;;1.13;100.00;97429.72;4961010;28;20489;-43
2022/12/19 05:56:24;;;;;;;52.00;24.02;;;;;;;1.48;100.00;97419.63;4963969;28;20090;-48
2022/12/19 05:58:53;;;;;;;54.30;25.63;;;;;;;0.95;100.00;97433.91;4969448;28;20159;-51
2022/12/19 06:01:24;;;;;;;51.55;24.30;;;;;;;1.08;100.00;97442.06;4964418;28;20086;-47
2022/12/19 06:03:54;;;;;;;52.70;24.73;;;;;;;1.59;100.00;97452.06;4961997;28;20093;-48
2022/12/19 06:06:24;;;;;;;53.55;26.33;;;;;;;1.07;100.00;97446.44;4960687;28;20527;-46
2022/12/19 06:08:53;;;;;;;45.80;21.90;;;;;;;0.94;100.00;97435.69;4967423;28;20501;-48
2022/12/19 06:11:22;;;;;;;51.55;23.63;;;;;;;1.06;100.00;97436.09;4962570;28;20074;-48
2022/12/19 06:13:50;;;;;;;51.13;23.67;;;;;;;1.16;100.00;97433.03;4965154;28;20079;-43
2022/12/19 06:16:20;;;;;;;50.55;23.00;;;;;;;1.11;100.00;97429.81;4968839;28;20530;-47
2022/12/19 06:18:50;;;;;;;58.58;26.73;;;;;;;1.37;100.00;97427.88;4969577;28;20086;-46
2022/12/19 06:21:20;;;;;;;56.13;25.42;;;;;;;1.53;100.00;97444.50;4968418;28;20539;-48
2022/12/19 06:23:49;;;;;;;58.53;26.77;;;;;;;1.69;100.00;97438.66;4965360;28;20535;-44
2022/12/19 06:26:18;;;;;;;53.17;26.35;;;;;;;1.35;100.00;97448.72;4973119;28;20085;-45
2022/12/19 06:28:47;;;;;;;;;;;;;;;1.53;100.00;97438.47;4965410;28;20087;-49
2022/12/19 06:31:16;;;;;;;54.03;24.33;;;;;;;1.29;100.00;97437.75;4972045;28;19965;-47
2022/12/19 06:33:45;;;;;;;50.50;24.35;;;;;;;1.60;100.00;97425.16;4966337;28;20094;-46
2022/12/19 06:36:17;;;;;;;52.30;24.67;;;;;;;1.58;100.00;97433.91;4967345;28;20487;-47
2022/12/19 06:38:46;;;;;;;57.60;25.85;;;;;;;1.61;100.00;97444.19;4970713;28;20097;-44
2022/12/19 06:44:01;;;;;;;53.78;24.98;;;;;;;1.92;100.00;97443.69;4968536;28;20113;-53
2022/12/19 06:46:29;;;;;;;52.00;25.25;;;;;;;1.54;100.00;97447.97;4967445;28;20070;-48
2022/12/19 06:48:58;;;;;;;50.72;24.77;;;;;;;1.84;100.00;97435.41;4961810;28;20090;-43
2022/12/19 06:51:28;;;;;;;52.15;26.20;;;;;;;1.69;100.00;97429.13;4962780;28;20104;-49
2022/12/19 06:53:56;;;;;;;56.50;25.27;;;;;;;1.77;100.00;97431.38;4961624;28;20623;-44
2022/12/19 06:56:24;;;;;;;51.38;24.70;;;;;;;1.62;100.00;97430.31;4968111;28;20465;-46
2022/12/19 06:58:53;;;;;;;53.03;25.48;;;;;;;1.80;100.00;97429.50;4964246;28;20087;-46
2022/12/19 07:01:43;;;;;;;57.47;26.70;;;;;;;1.83;100.00;97438.94;4972874;28;20090;-52
2022/12/19 07:04:16;;;;;;;50.60;25.33;;;;;;;1.72;100.00;97442.00;4969170;28;20109;-51
2022/12/19 07:06:45;;;;;;;50.67;24.88;;;;;;;2.06;100.00;97436.13;4970081;28;20479;-48
2022/12/19 07:09:17;;;;;;;55.53;26.63;;;;;;;2.29;100.00;97435.09;4964672;28;20090;-50
2022/12/19 07:11:45;;;;;;;55.38;26.25;;;;;;;2.26;100.00;97437.00;4965389;28;20188;-43
2022/12/19 07:14:13;;;;;;;54.15;26.45;;;;;;;1.84;100.00;97445.81;4963431;28;20117;-44
2022/12/19 07:16:42;;;;;;;50.85;25.13;;;;;;;2.23;100.00;97442.34;4969965;28;20491;-50
2022/12/19 07:19:10;;;;;;;52.72;25.73;;;;;;;2.23;100.00;97445.78;4966573;28;20082;-48
2022/12/19 07:21:39;;;;;;;58.53;26.25;;;;;;;2.35;100.00;97445.25;4969598;28;20086;-49
2022/12/19 07:24:09;;;;;;;51.70;24.25;;;;;;;2.44;100.00;97453.53;4956757;28;20087;-45
2022/12/19 07:26:38;;;;;;;52.63;26.38;;;;;;;2.50;100.00;97446.28;4967925;28;20086;-48
2022/12/19 07:29:06;;;;;;;49.88;24.45;;;;;;;2.42;100.00;97443.22;4955395;28;20097;-45
2022/12/19 07:31:35;;;;;;;53.20;24.65;;;;;;;2.38;100.00;97449.47;4970901;28;20097;-46
2022/12/19 07:34:04;;;;;;;53.67;24.83;;;;;;;2.69;100.00;97435.03;4964628;28;20078;-46
2022/12/19 07:36:32;;;;;;;51.90;25.77;;;;;;;2.77;100.00;97438.97;4968288;28;20082;-48
2022/12/19 07:39:01;;;;;;;49.63;24.92;;;;;;;2.70;100.00;97441.94;4961413;28;20657;-46
2022/12/19 07:41:31;;;;;;;51.30;24.92;;;;;;;2.73;100.00;97447.00;4966524;28;20082;-50
2022/12/19 07:44:00;;;;;;;59.63;28.17;;;;;;;2.79;100.00;97442.34;4965924;28;20147;-44
2022/12/19 07:46:29;;;;;;;46.85;22.67;;;;;;;2.68;100.00;97443.75;4961331;28;20083;-45
2022/12/19 07:49:00;;;;;;;51.47;25.23;;;;;;;2.33;100.00;97447.06;4961720;28;20571;-43
2022/12/19 07:51:28;;;;;;;49.35;25.63;;;;;;;2.85;100.00;97438.59;4969380;28;20474;-48
2022/12/19 07:53:58;;;;;;;51.35;25.05;;;;;;;2.36;100.00;97440.88;4964615;28;20527;-49
2022/12/19 07:56:27;;;;;;;51.55;24.27;;;;;;;3.22;100.00;97439.44;4965240;28;20082;-48
2022/12/19 07:58:56;;;;;;;52.00;24.50;;;;;;;2.84;100.00;97452.53;4969098;28;20070;-43
2022/12/19 08:01:25;;;;;;;49.30;24.67;;;;;;;3.52;100.00;97448.34;4958742;28;20086;-46
2022/12/19 08:03:57;;;;;;;48.63;24.13;;;;;;;2.97;100.00;97432.81;4960343;28;20090;-46
2022/12/19 08:06:26;;;;;;;47.72;22.08;;;;;;;2.85;100.00;97444.63;4963707;28;20455;-44
2022/12/19 08:08:55;;;;;;;48.63;24.65;;;;;;;2.87;100.00;97441.97;4963651;28;20089;-47
2022/12/19 08:11:26;;;;;;;46.30;23.35;;;;;;;3.27;100.00;97445.28;4964189;28;20510;-49
2022/12/19 08:13:55;;;;;;;43.95;21.67;;;;;;;3.08;100.00;97437.50;4960196;28;20539;-54
2022/12/19 08:16:26;;;;;;;41.78;22.83;;;;;;;3.04;100.00;97442.00;4970959;28;20078;-48
2022/12/19 08:18:55;;;;;;;42.83;22.55;;;;;;;3.29;100.00;97433.00;4963953;28;20090;-46
2022/12/19 08:21:23;;;;;;;47.03;24.10;;;;;;;3.12;100.00;97430.38;4967054;28;20094;-50
2022/12/19 08:23:52;;;;;;;44.53;21.92;;;;;;;3.01;100.00;97418.69;4957491;28;20632;-47
2022/12/19 08:26:24;;;;;;;42.85;22.70;;;;;;;3.11;100.00;97419.09;4966744;28;20094;-46
2022/12/19 08:28:53;;;;;;;31.23;17.35;;;;;;;3.21;100.00;97417.75;4966970;28;20086;-47
2022/12/19 08:31:23;;;;;;;42.03;21.25;;;;;;;3.43;100.00;97427.09;4964644;28;20093;-47
2022/12/19 08:33:55;;;;;;;40.55;20.73;;;;;;;3.37;100.00;97412.59;4960706;28;20617;-46
2022/12/19 08:36:24;;;;;;;41.05;20.85;;;;;;;3.90;100.00;97408.19;4964637;28;20482;-53
2022/12/19 08:38:53;;;;;;;42.63;22.10;;;;;;;3.64;100.00;97396.47;4956473;28;20079;-44
2022/12/19 08:41:22;;;;;;;37.75;20.33;;;;;;;3.14;100.00;97400.72;4970987;28;20082;-44
2022/12/19 08:43:52;;;;;;;36.03;19.65;;;;;;;3.22;100.00;97389.91;4960223;28;20094;-49
2022/12/19 08:46:20;;;;;;;42.38;21.17;;;;;;;3.61;100.00;97394.00;4970725;28;20081;-50
2022/12/19 08:48:49;;;;;;;38.00;20.92;;;;;;;3.76;100.00;97401.91;4960493;28;20090;-46
2022/12/19 08:51:19;;;;;;;41.08;21.63;;;;;;;4.04;100.00;97396.09;4967228;28;20523;-43
2022/12/19 08:53:48;;;;;;;40.05;20.83;;;;;;;4.25;100.00;97390.63;4968121;28;20562;-49
2022/12/19 08:56:18;;;;;;;40.75;20.73;;;;;;;4.70;100.00;97387.28;4965428;28;20094;-48
2022/12/19 08:58:47;;;;;;;40.50;21.40;;;;;;;4.80;100.00;97382.38;4965389;28;20071;-51
2022/12/19 09:01:17;;;;;;;41.05;21.25;;;;;;;5.13;100.00;97386.63;4965594;28;20082;-49
2022/12/19 09:03:47;;;;;;;39.10;20.23;;;;;;;4.91;100.00;97380.00;4970197;28;20081;-44
2022/12/19 09:06:37;;;;;;;42.40;22.27;;;;;;;4.92;100.00;97371.25;4961497;28;20078;-49
2022/12/19 09:09:05;;;;;;;42.92;22.27;;;;;;;4.96;100.00;97367.53;4963470;28;20471;-49
2022/12/19 09:11:34;;;;;;;39.28;20.92;;;;;;;5.28;100.00;97361.38;4961111;28;20097;-48
2022/12/19 09:14:15;;;;;;;40.53;20.48;;;;;;;4.75;100.00;97359.13;4965919;28;20082;-47
2022/12/19 09:16:48;;;;;;;43.15;22.30;;;;;;;5.34;100.00;97353.16;4961309;28;20086;-46
2022/12/19 09:19:17;;;;;;;41.13;22.40;;;;;;;5.62;100.00;97354.97;4960860;28;20086;-45
2022/12/19 09:21:46;;;;;;;42.83;23.00;;;;;;;5.95;100.00;97357.34;4968232;28;20087;-43
2022/12/19 09:24:14;;;;;;;42.63;20.83;;;;;;;5.50;100.00;97364.38;4965363;28;20082;-45
2022/12/19 09:26:44;;;;;;;41.78;21.83;;;;;;;5.58;100.00;97363.94;4965909;28;20090;-48
2022/12/19 09:29:12;;;;;;;41.58;21.90;;;;;;;6.03;100.00;97354.28;4966799;28;20086;-48
2022/12/19 09:31:48;;;;;;;43.13;21.70;;;;;;;5.59;100.00;97355.16;4964610;28;20089;-49
2022/12/19 09:34:25;;;;;;;36.40;19.40;;;;;;;5.50;100.00;97353.91;4967978;28;20089;-48
2022/12/19 09:37:09;;;;;;;43.42;24.67;;;;;;;5.74;100.00;97364.69;4961881;28;20083;-47
2022/12/19 09:39:44;;;;;;;43.85;21.73;;;;;;;5.90;100.00;97360.22;4965392;28;20066;-49
2022/12/19 09:42:25;;;;;;;44.95;23.60;;;;;;;6.28;100.00;97364.91;4965784;28;20070;-46
2022/12/19 09:45:08;;;;;;;45.67;22.42;;;;;;;6.58;100.00;97358.69;4966117;28;20086;-44
2022/12/19 09:47:42;;;;;;;44.15;22.70;;;;;;;6.57;98.87;97356.97;4962722;28;20181;-45
2022/12/19 09:50:24;;;;;;;44.17;22.77;;;;;;;6.21;94.77;97368.84;4956824;28;20094;-45
2022/12/19 09:52:57;;;;;;;40.58;21.92;;;;;;;5.88;100.00;97361.25;4963096;28;20082;-48
2022/12/19 09:55:28;;;;;;;43.08;22.80;;;;;;;6.43;99.63;97357.84;4969119;28;20141;-50
2022/12/19 09:58:00;;;;;;;40.78;21.13;;;;;;;6.06;100.00;97364.56;4967260;28;20111;-49
2022/12/19 10:00:34;;;;;;;41.63;22.25;;;;;;;6.23;99.55;97361.75;4965169;28;20082;-48
2022/12/19 10:03:07;;;;;;;46.78;23.80;;;;;;;6.17;100.00;97354.25;4971815;28;20070;-49
2022/12/19 10:05:41;;;;;;;41.40;22.08;;;;;;;6.53;100.00;97350.25;4962228;28;20043;-51
2022/12/19 10:08:32;;;;;;;42.10;22.15;;;;;;;6.90;98.71;97340.88;4975315;28;20090;-44
2022/12/19 10:11:09;;;;;;;46.55;22.30;;;;;;;7.21;94.34;97349.34;4961125;28;20094;-48
2022/12/19 10:14:07;;;;;;;39.95;21.75;;;;;;;7.44;91.51;97346.03;4968150;28;20093;-48
2022/12/19 10:16:42;;;;;;;43.95;22.95;;;;;;;6.76;91.54;97339.13;4965973;28;20464;-47
2022/12/19 10:19:38;;;;;;;42.15;22.23;;;;;;;7.60;91.96;97336.19;4964010;28;20468;-51
2022/12/19 10:22:13;;;;;;;43.15;23.27;;;;;;;7.01;90.78;97335.75;4973697;28;20609;-48
2022/12/19 10:25:06;;;;;;;44.63;22.52;;;;;;;7.35;94.16;97333.50;4963721;28;20097;-44
2022/12/19 10:27:41;;;;;;;43.53;22.70;;;;;;;7.27;92.49;97334.03;4965516;28;20624;-45
2022/12/19 10:30:28;;;;;;;41.70;22.85;;;;;;;6.75;97.97;97337.47;4969996;28;20078;-44
2022/12/19 10:33:05;;;;;;;37.45;20.92;;;;;;;7.59;94.62;97328.38;4968064;28;20109;-54
2022/12/19 10:35:43;;;;;;;42.92;22.88;;;;;;;7.39;92.19;97337.59;4956957;28;20610;-47
2022/12/19 10:38:21;;;;;;;40.22;22.13;;;;;;;7.41;90.06;97327.84;4965456;28;20086;-48
2022/12/19 10:40:54;;;;;;;42.17;22.40;;;;;;;7.69;88.38;97328.59;4958291;28;20503;-53
2022/12/19 10:43:35;;;;;;;42.95;22.48;;;;;;;7.65;91.64;97319.25;4964535;28;20082;-46
2022/12/19 10:46:14;;;;;;;43.17;22.70;;;;;;;7.58;91.52;97321.47;4954019;28;20094;-45
2022/12/19 10:48:42;;;;;;;40.17;21.73;;;;;;;7.68;92.34;97312.00;4964666;28;20083;-44
2022/12/19 10:51:12;;;;;;;40.75;22.35;;;;;;;7.50;94.14;97303.63;4955295;28;20134;-50
2022/12/19 10:53:41;;;;;;;42.33;23.80;;;;;;;7.53;91.53;97305.19;4960941;28;20086;-45
2022/12/19 10:56:22;;;;;;;43.13;24.25;;;;;;;7.42;94.63;97311.16;4957381;28;20087;-46
2022/12/19 10:58:56;;;;;;;44.58;23.17;;;;;;;7.63;97.88;97295.72;4966362;28;20093;-50
2022/12/19 11:01:26;;;;;;;43.78;23.92;;;;;;;7.52;94.80;97291.22;4954333;28;20082;-48
2022/12/19 11:04:27;;;;;;;46.95;24.40;;;;;;;7.18;100.00;97283.97;4963811;28;20090;-47
2022/12/19 11:07:17;;;;;;;41.22;22.88;;;;;;;7.26;100.00;97273.78;4956378;28;20148;-52
2022/12/19 11:09:45;;;;;;;44.08;22.60;;;;;;;7.56;100.00;97270.84;4956996;28;20067;-44
2022/12/19 11:12:35;;;;;;;44.60;23.08;;;;;;;7.16;100.00;97276.22;4957487;28;20079;-50
2022/12/19 11:15:23;;;;;;;41.73;21.73;;;;;;;7.38;100.00;97271.16;4956178;28;20094;-47
2022/12/19 11:18:13;;;;;;;42.42;23.38;;;;;;;7.09;100.00;97260.03;4956007;28;20086;-50
2022/12/19 11:21:03;;;;;;;43.30;21.20;;;;;;;6.69;100.00;97256.59;4957819;28;20521;-50
2022/12/19 11:23:54;;;;;;;46.80;24.42;;;;;;;6.69;100.00;97253.97;4958826;28;20141;-50
2022/12/19 11:26:45;;;;;;;43.50;22.88;;;;;;;6.88;100.00;97254.47;4957566;28;20110;-49
2022/12/19 11:29:47;;;;;;;39.78;22.23;;;;;;;7.14;100.00;97243.97;4957632;28;20075;-44
2022/12/19 11:32:37;;;;;;;44.55;23.70;;;;;;;7.41;100.00;97248.31;4959623;28;20503;-50
2022/12/19 11:35:17;;;;;;;45.00;24.15;;;;;;;6.82;100.00;97236.50;4956818;28;20082;-49
2022/12/19 11:37:50;;;;;;;44.92;23.83;;;;;;;7.31;100.00;97241.06;4956097;28;20075;-44
2022/12/19 11:40:31;;;;;;;44.17;23.45;;;;;;;7.44;100.00;97227.09;4961276;28;20109;-46
2022/12/19 11:43:03;;;;;;;43.08;22.33;;;;;;;7.63;100.00;97218.75;4959962;28;20519;-49
2022/12/19 11:45:59;;;;;;;41.80;23.08;;;;;;;7.01;100.00;97228.22;4953669;28;20079;-44
2022/12/19 11:48:34;;;;;;;40.25;22.75;;;;;;;7.34;100.00;97221.63;4958079;28;20534;-44
2022/12/19 11:51:10;;;;;;;42.75;23.15;;;;;;;7.22;100.00;97232.97;4957753;28;20070;-48